Time;durP1;ratioP1;P1;durP2;ratioP2;P2;SDS_P1;SDS_P2;PMS_P1;PMS_P2;Temp;Humidity;BMP_temperature;BMP_pressure;BME280_temperature;BME280_humidity;BME280_pressure;Samples;Min_cycle;Max_cycle;Signal;HPM_P1;HPM_P2
2022/06/11 00:02:37;;;;;;;13.98;9.57;;;17.20;99.90;;;;;;6374302;27;20051;-68
2022/06/11 00:05:41;;;;;;;14.73;9.43;;;17.20;99.90;;;;;;6355532;27;20039;-68
2022/06/11 00:08:44;;;;;;;13.65;8.90;;;17.20;99.90;;;;;;6374399;27;20043;-69
2022/06/11 00:11:46;;;;;;;13.85;8.85;;;17.20;99.90;;;;;;6372998;27;20056;-68
2022/06/11 00:14:49;;;;;;;13.20;8.40;;;17.30;99.90;;;;;;6355933;27;20047;-70
2022/06/11 00:17:52;;;;;;;12.82;7.45;;;17.20;99.90;;;;;;6373761;27;20419;-68
2022/06/11 00:20:56;;;;;;;15.38;9.43;;;17.30;99.90;;;;;;6373910;27;20081;-69
2022/06/11 00:23:58;;;;;;;11.02;6.68;;;17.40;99.90;;;;;;6373621;27;20074;-68
2022/06/11 00:27:01;;;;;;;12.60;7.65;;;17.50;99.90;;;;;;6355683;27;20403;-68
2022/06/11 00:30:03;;;;;;;12.17;6.53;;;17.60;99.90;;;;;;6355180;27;20088;-69
2022/06/11 00:33:07;;;;;;;11.50;6.97;;;17.70;99.90;;;;;;6373112;27;20055;-68
2022/06/11 00:36:11;;;;;;;10.50;6.90;;;17.80;99.90;;;;;;6373245;27;20039;-69
2022/06/11 00:39:16;;;;;;;10.82;5.13;;;17.90;99.90;;;;;;6355045;27;20051;-69
2022/06/11 00:42:23;;;;;;;12.70;7.95;;;17.90;99.90;;;;;;6373279;27;20039;-69
2022/06/11 00:45:33;;;;;;;13.88;8.20;;;17.90;99.90;;;;;;6373250;27;20053;-68
2022/06/11 00:48:39;;;;;;;10.05;5.85;;;18.00;99.90;;;;;;6355176;27;20043;-69
2022/06/11 00:51:43;;;;;;;9.25;4.70;;;18.00;99.90;;;;;;6354992;27;20055;-68
2022/06/11 00:54:48;;;;;;;8.65;4.53;;;18.10;99.90;;;;;;6372896;27;20061;-69
2022/06/11 00:57:54;;;;;;;8.60;4.70;;;18.20;99.90;;;;;;6373246;27;20487;-70
2022/06/11 01:00:58;;;;;;;8.02;3.63;;;18.30;99.90;;;;;;6372966;27;20031;-68
2022/06/11 01:04:02;;;;;;;8.02;3.53;;;18.30;99.90;;;;;;6354487;27;20050;-68
2022/06/11 01:07:17;;;;;;;7.72;3.67;;;18.40;99.90;;;;;;6354475;27;20399;-68
2022/06/11 01:10:43;;;;;;;6.93;2.70;;;18.40;99.90;;;;;;6354604;27;20499;-68
2022/06/11 01:13:54;;;;;;;6.03;2.60;;;18.60;99.90;;;;;;6310665;27;20047;-68
2022/06/11 01:17:10;;;;;;;6.72;2.40;;;18.70;99.90;;;;;;6354850;27;20054;-68
2022/06/11 01:20:33;;;;;;;8.73;2.55;;;18.70;99.90;;;;;;6372417;27;20045;-68
2022/06/11 01:24:10;;;;;;;7.63;2.50;;;18.80;99.90;;;;;;6372600;27;20061;-68
2022/06/11 01:27:29;;;;;;;6.63;2.22;;;18.70;99.90;;;;;;6372875;27;20054;-68
2022/06/11 01:30:37;;;;;;;5.93;2.28;;;18.70;99.90;;;;;;6372139;27;20499;-68
2022/06/11 01:33:51;;;;;;;3.83;1.98;;;18.70;99.90;;;;;;6372012;27;20412;-68
2022/06/11 01:37:02;;;;;;;8.27;1.60;;;18.70;99.90;;;;;;6371856;27;20039;-68
2022/06/11 01:40:11;;;;;;;4.15;1.63;;;18.70;99.90;;;;;;6372078;28;20047;-68
2022/06/11 01:43:22;;;;;;;5.65;1.92;;;18.60;99.90;;;;;;6372072;28;20129;-68
2022/06/11 01:46:29;;;;;;;3.88;1.70;;;18.70;99.90;;;;;;6372030;28;20503;-68
2022/06/11 01:49:40;;;;;;;9.02;1.85;;;18.60;99.90;;;;;;6353573;28;20043;-68
2022/06/11 01:53:08;;;;;;;4.85;1.50;;;18.50;99.90;;;;;;6353613;28;20051;-68
2022/06/11 01:56:26;;;;;;;7.07;1.65;;;18.40;99.90;;;;;;6372365;28;20048;-68
2022/06/11 01:59:43;;;;;;;10.00;2.47;;;18.30;99.90;;;;;;6347621;28;20048;-69
2022/06/11 02:02:58;;;;;;;5.10;1.83;;;18.10;99.90;;;;;;6346373;28;20072;-68
2022/06/11 02:06:18;;;;;;;6.45;1.73;;;17.80;99.90;;;;;;6346036;28;20070;-69
2022/06/11 02:09:31;;;;;;;7.22;2.10;;;17.70;99.90;;;;;;6328348;28;20112;-68
2022/06/11 02:12:39;;;;;;;6.53;1.92;;;17.60;99.90;;;;;;6346280;28;20130;-68
2022/06/11 02:15:46;;;;;;;6.72;1.67;;;17.60;99.90;;;;;;6328302;28;20505;-68
2022/06/11 02:18:52;;;;;;;6.55;1.77;;;17.50;99.90;;;;;;6328017;28;20507;-68
2022/06/11 02:21:58;;;;;;;8.90;2.00;;;17.40;99.90;;;;;;6327962;28;20050;-69
2022/06/11 02:25:07;;;;;;;8.35;1.77;;;17.30;99.90;;;;;;6346118;28;20055;-69
2022/06/11 02:28:14;;;;;;;7.10;1.92;;;17.10;99.90;;;;;;6346219;28;20051;-68
2022/06/11 02:31:23;;;;;;;10.45;2.05;;;16.90;99.90;;;;;;6330141;28;20043;-68
2022/06/11 02:34:28;;;;;;;11.07;2.10;;;16.80;99.90;;;;;;6327559;28;20048;-68
2022/06/11 02:37:34;;;;;;;11.38;2.28;;;16.70;99.90;;;;;;6350056;28;20054;-68
2022/06/11 02:40:39;;;;;;;10.27;2.22;;;16.60;99.90;;;;;;6350707;28;20047;-69
2022/06/11 02:43:41;;;;;;;8.15;2.10;;;16.60;99.90;;;;;;6350936;28;20053;-68
2022/06/11 02:46:44;;;;;;;5.40;1.80;;;16.50;99.90;;;;;;6332416;28;20051;-68
2022/06/11 02:49:48;;;;;;;7.40;2.03;;;16.50;99.90;;;;;;6350491;28;20052;-68
2022/06/11 02:52:51;;;;;;;8.45;1.95;;;16.40;99.90;;;;;;6351082;28;20051;-68
2022/06/11 02:55:53;;;;;;;11.13;2.33;;;16.40;99.90;;;;;;6350279;28;20052;-68
2022/06/11 02:58:55;;;;;;;8.30;2.45;;;16.30;99.90;;;;;;6345024;27;20059;-68
2022/06/11 03:01:58;;;;;;;12.85;3.10;;;16.30;99.90;;;;;;6357445;27;20065;-69
2022/06/11 03:05:01;;;;;;;8.10;2.30;;;16.30;99.90;;;;;;6357516;27;20492;-69
2022/06/11 03:08:05;;;;;;;6.10;2.10;;;16.30;99.90;;;;;;6357322;27;20130;-68
2022/06/11 03:11:06;;;;;;;;;;;16.30;99.90;;;;;;6357584;27;20072;-69
2022/06/11 03:14:08;;;;;;;9.55;2.47;;;16.30;99.90;;;;;;6375372;27;20283;-69
2022/06/11 03:17:13;;;;;;;7.60;2.38;;;16.30;99.90;;;;;;6375359;27;20051;-69
2022/06/11 03:20:18;;;;;;;8.77;2.30;;;16.30;99.90;;;;;;6375229;27;20047;-68
2022/06/11 03:23:21;;;;;;;14.05;2.70;;;16.30;99.90;;;;;;6356930;27;20490;-69
2022/06/11 03:26:23;;;;;;;9.68;2.45;;;16.30;99.90;;;;;;6375427;27;20043;-68
2022/06/11 03:29:26;;;;;;;8.73;3.20;;;16.30;99.90;;;;;;6368087;27;20511;-68
2022/06/11 03:32:28;;;;;;;8.30;2.58;;;16.30;99.90;;;;;;6349237;28;20044;-69
2022/06/11 03:35:32;;;;;;;10.00;3.03;;;16.20;99.90;;;;;;6349316;28;20044;-68
2022/06/11 03:38:35;;;;;;;6.45;2.95;;;16.20;99.90;;;;;;6330937;28;20051;-68
2022/06/11 03:41:37;;;;;;;8.88;3.50;;;16.20;99.90;;;;;;6348987;28;20048;-68
2022/06/11 03:44:39;;;;;;;7.60;4.13;;;16.10;99.90;;;;;;6330732;28;20052;-68
2022/06/11 03:47:41;;;;;;;10.65;5.00;;;16.10;99.90;;;;;;6348822;28;20048;-68
2022/06/11 03:50:44;;;;;;;11.20;5.32;;;16.10;99.90;;;;;;6349146;28;20197;-69
2022/06/11 03:53:47;;;;;;;6.18;2.97;;;16.10;99.90;;;;;;6330932;28;20050;-69
2022/06/11 03:56:51;;;;;;;17.10;5.67;;;16.10;99.90;;;;;;6330707;28;20515;-68
2022/06/11 03:59:53;;;;;;;5.90;2.97;;;16.30;99.90;;;;;;6368549;27;20055;-68
2022/06/11 04:02:55;;;;;;;9.18;4.13;;;16.40;99.90;;;;;;6374407;27;20495;-68
2022/06/11 04:05:58;;;;;;;9.88;4.28;;;16.50;99.90;;;;;;6373721;27;20043;-68
2022/06/11 04:09:01;;;;;;;7.30;3.53;;;16.50;99.90;;;;;;6354767;27;20126;-68
2022/06/11 04:12:09;;;;;;;8.45;3.65;;;16.50;99.90;;;;;;6355849;27;20047;-68
2022/06/11 04:15:12;;;;;;;12.98;4.05;;;16.50;99.90;;;;;;6355238;27;20051;-68
2022/06/11 04:18:23;;;;;;;7.60;2.72;;;16.60;99.90;;;;;;6355770;27;20051;-68
2022/06/11 04:21:27;;;;;;;6.10;2.63;;;16.60;99.90;;;;;;6373594;27;20487;-68
2022/06/11 04:24:30;;;;;;;8.88;3.20;;;16.60;99.90;;;;;;6355253;27;20047;-68
2022/06/11 04:27:32;;;;;;;7.77;2.60;;;16.80;99.90;;;;;;6354867;27;20051;-68
2022/06/11 04:30:34;;;;;;;9.65;3.45;;;16.80;99.90;;;;;;6373517;27;20047;-68
2022/06/11 04:33:37;;;;;;;7.32;2.85;;;16.90;99.90;;;;;;6372982;27;20055;-68
2022/06/11 04:36:41;;;;;;;9.60;2.47;;;16.90;99.90;;;;;;6354973;27;20058;-68
2022/06/11 04:39:46;;;;;;;9.27;3.65;;;17.10;99.90;;;;;;6355009;27;20047;-69
2022/06/11 04:42:48;;;;;;;9.82;3.55;;;17.10;99.90;;;;;;6354730;27;20047;-68
2022/06/11 04:45:50;;;;;;;9.65;4.05;;;17.00;99.90;;;;;;6354910;27;20184;-68
2022/06/11 04:48:52;;;;;;;11.63;4.53;;;17.00;99.90;;;;;;6373085;27;20177;-68
2022/06/11 04:51:56;;;;;;;10.93;3.55;;;17.10;99.90;;;;;;6354896;27;20116;-68
2022/06/11 04:54:58;;;;;;;12.73;6.07;;;17.10;99.90;;;;;;6354413;27;20050;-68
2022/06/11 04:58:01;;;;;;;14.50;5.80;;;17.20;99.90;;;;;;6372135;27;20084;-68
2022/06/11 05:01:03;;;;;;;;;;;17.20;99.90;;;;;;6373179;27;20130;-68
2022/06/11 05:04:05;;;;;;;14.60;7.43;;;17.30;99.90;;;;;;6354726;27;20341;-68
2022/06/11 05:07:09;;;;;;;12.65;7.50;;;17.40;99.90;;;;;;6372654;27;20039;-68
2022/06/11 05:10:13;;;;;;;14.00;7.45;;;17.40;99.90;;;;;;6354245;27;20055;-68
2022/06/11 05:13:15;;;;;;;12.23;7.07;;;17.40;99.90;;;;;;6354355;27;20430;-68
2022/06/11 05:16:19;;;;;;;14.52;6.88;;;17.50;99.90;;;;;;6372522;27;20049;-68
2022/06/11 05:19:21;;;;;;;13.55;6.18;;;17.70;99.90;;;;;;6354521;27;20188;-68
2022/06/11 05:22:25;;;;;;;12.23;6.50;;;17.80;99.90;;;;;;6354306;27;20039;-68
2022/06/11 05:25:27;;;;;;;7.13;4.28;;;17.80;99.90;;;;;;6372409;27;20047;-69
2022/06/11 05:28:32;;;;;;;12.65;6.38;;;17.80;99.90;;;;;;6372256;27;20368;-68
2022/06/11 05:31:34;;;;;;;12.98;5.25;;;17.80;99.90;;;;;;6353587;27;20058;-68
2022/06/11 05:34:37;;;;;;;9.57;4.10;;;17.90;99.90;;;;;;6372251;27;20043;-70
2022/06/11 05:37:40;;;;;;;11.40;5.00;;;18.00;99.90;;;;;;6353906;27;20043;-68
2022/06/11 05:40:44;;;;;;;;;;;18.00;99.90;;;;;;6372813;28;20058;-68
2022/06/11 05:43:46;;;;;;;11.10;3.97;;;18.00;99.90;;;;;;6372452;28;19923;-68
2022/06/11 05:46:48;;;;;;;8.30;3.50;;;18.10;99.90;;;;;;6353998;28;20492;-68
2022/06/11 05:49:56;;;;;;;6.72;3.15;;;18.20;99.90;;;;;;6372299;28;20079;-68
2022/06/11 05:53:01;;;;;;;8.57;3.47;;;18.20;99.90;;;;;;6371833;28;21098;-68
2022/06/11 05:56:05;;;;;;;8.73;3.40;;;18.30;99.90;;;;;;6353862;28;20126;-68
2022/06/11 05:59:14;;;;;;;7.15;3.30;;;18.40;99.90;;;;;;6353502;28;20502;-69
2022/06/11 06:02:19;;;;;;;10.60;3.75;;;18.60;99.90;;;;;;6371836;28;20597;-68
2022/06/11 06:05:24;;;;;;;9.50;3.38;;;18.70;99.90;;;;;;6371568;28;20423;-69
2022/06/11 06:08:27;;;;;;;12.30;3.75;;;18.70;99.90;;;;;;6372110;28;20184;-68
2022/06/11 06:11:29;;;;;;;13.05;4.25;;;18.70;99.90;;;;;;6376318;27;20047;-68
2022/06/11 06:14:31;;;;;;;12.45;4.10;;;18.80;99.90;;;;;;6376936;27;20047;-68
2022/06/11 06:17:33;;;;;;;11.15;3.75;;;18.80;99.90;;;;;;6377082;27;20172;-69
2022/06/11 06:20:35;;;;;;;14.38;3.70;;;18.90;99.90;;;;;;6358363;27;20123;-69
2022/06/11 06:23:39;;;;;;;12.85;4.18;;;18.90;99.90;;;;;;6358629;27;20055;-68
2022/06/11 06:26:41;;;;;;;;;;;18.90;99.90;;;;;;6377060;27;20047;-68
2022/06/11 06:29:43;;;;;;;9.88;3.17;;;18.90;99.90;;;;;;6377034;27;19923;-68
2022/06/11 06:32:45;;;;;;;9.02;2.47;;;19.00;99.90;;;;;;6376162;27;20058;-68
2022/06/11 06:35:47;;;;;;;12.10;3.08;;;19.10;99.90;;;;;;6358103;27;20088;-68
2022/06/11 06:38:51;;;;;;;20.20;3.75;;;19.30;99.90;;;;;;6376217;27;20089;-68
2022/06/11 06:41:53;;;;;;;14.52;4.05;;;19.40;99.90;;;;;;6376386;27;20172;-69
2022/06/11 06:44:57;;;;;;;11.20;2.80;;;19.40;99.90;;;;;;6357979;27;20130;-69
2022/06/11 06:47:59;;;;;;;6.60;2.67;;;19.30;99.90;;;;;;6376082;27;20499;-69
2022/06/11 06:51:01;;;;;;;8.00;2.38;;;19.30;99.90;;;;;;6357541;27;20097;-69
2022/06/11 06:54:05;;;;;;;13.88;3.55;;;19.40;99.90;;;;;;6376093;27;20042;-69
2022/06/11 06:57:07;;;;;;;;;;;19.60;99.90;;;;;;6376558;27;20178;-69
2022/06/11 07:00:11;;;;;;;11.85;3.20;;;19.70;99.90;;;;;;6376024;27;20015;-69
2022/06/11 07:03:13;;;;;;;4.85;1.80;;;19.80;99.90;;;;;;6376246;27;20043;-69
2022/06/11 07:06:15;;;;;;;14.85;3.10;;;20.10;99.90;;;;;;6375421;27;20123;-69
2022/06/11 07:09:19;;;;;;;14.38;3.97;;;20.40;99.90;;;;;;6376092;27;20051;-69
2022/06/11 07:12:20;;;;;;;;;;;20.80;99.90;;;;;;6357613;27;20051;-69
2022/06/11 07:15:22;;;;;;;11.77;3.05;;;21.10;99.90;;;;;;6375748;27;19920;-69
2022/06/11 07:18:28;;;;;;;13.25;3.30;;;21.40;99.90;;;;;;6375262;27;20039;-69
2022/06/11 07:21:38;;;;;;;6.10;1.98;;;21.60;99.90;;;;;;6356259;27;20061;-69
2022/06/11 07:24:43;;;;;;;9.70;2.60;;;21.80;99.90;;;;;;6356966;27;20171;-69
2022/06/11 07:27:49;;;;;;;7.13;1.73;;;22.10;99.90;;;;;;6357078;27;20078;-69
2022/06/11 07:30:51;;;;;;;12.88;3.35;;;22.40;99.90;;;;;;6356873;27;20051;-69
2022/06/11 07:33:53;;;;;;;14.13;3.50;;;22.50;99.90;;;;;;6374906;27;20051;-69
2022/06/11 07:36:57;;;;;;;8.10;1.92;;;22.50;99.90;;;;;;6374708;27;20084;-69
2022/06/11 07:40:00;;;;;;;;;;;22.50;99.90;;;;;;6375551;27;20130;-69
2022/06/11 07:43:02;;;;;;;14.80;3.67;;;22.40;99.90;;;;;;6375021;27;19919;-69
2022/06/11 07:46:05;;;;;;;10.32;2.50;;;22.50;99.90;;;;;;6374962;27;20122;-69
2022/06/11 07:49:07;;;;;;;7.53;2.30;;;22.60;99.90;;;;;;6375080;27;20169;-69
2022/06/11 07:52:09;;;;;;;9.30;2.50;;;22.70;99.90;;;;;;6356870;27;20122;-69
2022/06/11 07:55:13;;;;;;;11.35;2.92;;;22.90;99.90;;;;;;6374460;27;20145;-70
2022/06/11 07:58:17;;;;;;;10.20;2.65;;;23.00;99.90;;;;;;6374412;27;20051;-69
2022/06/11 08:01:20;;;;;;;8.93;2.53;;;23.10;99.90;;;;;;6374357;27;20471;-69
2022/06/11 08:04:21;;;;;;;11.65;2.95;;;23.20;99.90;;;;;;6374371;27;20053;-69
2022/06/11 08:07:25;;;;;;;13.73;2.83;;;23.20;99.90;;;;;;6374317;27;20044;-69
2022/06/11 08:10:30;;;;;;;6.10;1.83;;;23.20;99.90;;;;;;6374381;27;20043;-69
2022/06/11 08:13:32;;;;;;;19.10;3.55;;;23.20;99.90;;;;;;6374280;27;20104;-69
2022/06/11 08:16:34;;;;;;;11.80;2.53;;;23.20;99.90;;;;;;6373911;27;20043;-69
2022/06/11 08:19:36;;;;;;;7.85;2.03;;;23.10;99.90;;;;;;6374156;27;20225;-69
2022/06/11 08:22:38;;;;;;;9.02;1.92;;;23.20;99.90;;;;;;6373687;27;20410;-69
2022/06/11 08:25:41;;;;;;;13.02;2.80;;;23.20;99.90;;;;;;6373651;27;20415;-69
2022/06/11 08:28:43;;;;;;;9.75;2.60;;;23.20;99.90;;;;;;6373663;27;20047;-69
2022/06/11 08:31:45;;;;;;;10.25;2.30;;;23.30;99.90;;;;;;6373276;27;20080;-69
2022/06/11 08:34:47;;;;;;;10.15;2.83;;;23.30;99.90;;;;;;6354541;27;20136;-69
2022/06/11 08:37:50;;;;;;;6.50;2.28;;;23.20;99.90;;;;;;6355000;27;20540;-70
2022/06/11 08:40:55;;;;;;;11.98;3.00;;;23.00;99.90;;;;;;6355089;27;20085;-69
2022/06/11 08:44:00;;;;;;;7.15;2.58;;;22.90;99.90;;;;;;6373100;27;20043;-69
2022/06/11 08:47:05;;;;;;;12.55;2.47;;;22.80;99.90;;;;;;6355102;27;20130;-69
2022/06/11 08:50:11;;;;;;;12.02;2.97;;;23.00;99.90;;;;;;6372935;27;20118;-69
2022/06/11 08:53:14;;;;;;;9.85;2.35;;;23.00;99.90;;;;;;6373049;27;20057;-69
2022/06/11 08:56:26;;;;;;;10.23;2.97;;;23.10;99.90;;;;;;6372789;27;20499;-69
2022/06/11 08:59:47;;;;;;;12.55;2.30;;;23.00;99.90;;;;;;6354934;27;20055;-68
2022/06/11 09:03:01;;;;;;;8.00;2.40;;;22.80;99.90;;;;;;6354115;27;20077;-69
2022/06/11 09:06:28;;;;;;;8.38;2.35;;;22.60;99.90;;;;;;6354487;27;20411;-69
2022/06/11 09:09:41;;;;;;;11.63;2.75;;;22.60;99.90;;;;;;6353984;27;20047;-69
2022/06/11 09:13:00;;;;;;;16.40;3.70;;;22.60;99.90;;;;;;6354517;27;20472;-69
2022/06/11 09:16:17;;;;;;;12.52;3.08;;;22.50;99.90;;;;;;6372832;27;20472;-69
2022/06/11 09:19:35;;;;;;;17.20;3.03;;;22.40;99.90;;;;;;6354397;27;20433;-68
2022/06/11 09:22:54;;;;;;;18.77;2.80;;;22.40;99.90;;;;;;6372319;27;20480;-69
2022/06/11 09:26:11;;;;;;;13.40;2.97;;;22.40;99.90;;;;;;6354279;27;20521;-69
2022/06/11 09:29:22;;;;;;;13.27;3.60;;;22.40;99.90;;;;;;6372628;27;20043;-69
2022/06/11 09:32:30;;;;;;;14.65;3.17;;;22.40;99.90;;;;;;6353766;27;20130;-69
2022/06/11 09:35:38;;;;;;;8.43;2.97;;;22.30;99.90;;;;;;6372321;27;20047;-69
2022/06/11 09:38:50;;;;;;;16.70;3.50;;;22.30;99.90;;;;;;6353752;27;20051;-69
2022/06/11 09:41:59;;;;;;;8.18;3.10;;;22.30;99.90;;;;;;6372030;28;20058;-69
2022/06/11 09:45:10;;;;;;;12.77;2.90;;;22.30;99.90;;;;;;6353843;28;20411;-68
2022/06/11 09:48:21;;;;;;;9.52;2.30;;;22.40;99.90;;;;;;6371944;28;20047;-69
2022/06/11 09:51:31;;;;;;;18.85;3.65;;;22.50;99.90;;;;;;6372163;28;20135;-69
2022/06/11 09:54:46;;;;;;;14.00;3.63;;;22.40;99.90;;;;;;6353594;28;20402;-69
2022/06/11 09:58:01;;;;;;;11.63;2.67;;;22.20;99.90;;;;;;6353651;28;20501;-69
2022/06/11 10:01:14;;;;;;;10.35;2.97;;;22.10;99.90;;;;;;6371647;28;20047;-69
2022/06/11 10:04:20;;;;;;;19.63;4.13;;;22.00;99.90;;;;;;6354096;28;20043;-69
2022/06/11 10:07:26;;;;;;;10.27;2.50;;;21.90;99.90;;;;;;6371571;28;20078;-69
2022/06/11 10:10:32;;;;;;;11.65;2.67;;;21.90;99.90;;;;;;6353841;28;20181;-69
2022/06/11 10:13:44;;;;;;;11.45;2.63;;;22.00;99.90;;;;;;6371908;28;20043;-69
2022/06/11 10:16:51;;;;;;;15.27;3.13;;;21.90;99.90;;;;;;6371900;28;20522;-69
2022/06/11 10:20:01;;;;;;;12.82;2.88;;;21.90;99.90;;;;;;6371846;28;20074;-69
2022/06/11 10:23:13;;;;;;;12.02;2.65;;;21.80;99.90;;;;;;6371609;28;20415;-69
2022/06/11 10:26:20;;;;;;;10.50;2.00;;;21.80;99.90;;;;;;6353517;28;20476;-69
2022/06/11 10:29:28;;;;;;;9.70;1.98;;;21.80;99.90;;;;;;6371653;28;20495;-69
2022/06/11 10:32:37;;;;;;;11.52;2.15;;;21.80;99.90;;;;;;6353149;28;20051;-68
2022/06/11 10:35:43;;;;;;;15.77;2.90;;;21.80;99.90;;;;;;6371712;28;20051;-69
2022/06/11 10:38:53;;;;;;;11.00;2.38;;;21.80;99.90;;;;;;6353613;28;20096;-69
2022/06/11 10:42:05;;;;;;;12.43;2.55;;;21.90;99.90;;;;;;6353005;28;20047;-69
2022/06/11 10:45:13;;;;;;;15.85;2.67;;;22.10;99.90;;;;;;6371445;28;20103;-69
2022/06/11 10:48:20;;;;;;;8.50;2.22;;;22.00;99.90;;;;;;6371885;28;20043;-69
2022/06/11 10:51:28;;;;;;;15.40;3.15;;;22.00;99.90;;;;;;6348655;28;20048;-69
2022/06/11 10:54:30;;;;;;;11.82;2.60;;;22.00;99.90;;;;;;6327332;28;20047;-69
2022/06/11 10:57:34;;;;;;;10.65;2.13;;;22.00;99.90;;;;;;6330163;28;20104;-69
2022/06/11 11:00:45;;;;;;;9.05;2.70;;;22.10;99.90;;;;;;6332014;28;20046;-69
2022/06/11 11:03:50;;;;;;;6.90;1.73;;;22.20;99.90;;;;;;6331538;28;20043;-69
2022/06/11 11:07:09;;;;;;;8.90;2.10;;;22.40;99.90;;;;;;6349857;28;20549;-69
2022/06/11 11:10:42;;;;;;;9.10;2.13;;;22.60;99.90;;;;;;6350155;28;20054;-69
2022/06/11 11:13:46;;;;;;;9.63;2.55;;;22.80;99.90;;;;;;6345587;28;20060;-69
2022/06/11 11:16:53;;;;;;;10.90;2.60;;;22.90;99.90;;;;;;6331672;28;20058;-69
2022/06/11 11:23:30;;;;;;;9.88;2.22;;;23.10;99.60;;;;;;6346638;27;20047;-69
2022/06/11 11:26:36;;;;;;;7.20;2.20;;;23.10;98.70;;;;;;6375150;27;20046;-69
2022/06/11 11:29:48;;;;;;;13.55;3.03;;;23.10;99.30;;;;;;6375436;27;20047;-69
2022/06/11 11:32:50;;;;;;;10.38;2.20;;;23.10;98.40;;;;;;6374638;27;20051;-68
2022/06/11 11:36:16;;;;;;;10.27;2.58;;;23.00;98.60;;;;;;6375050;27;20035;-69
2022/06/11 11:39:23;;;;;;;9.55;2.10;;;22.90;98.40;;;;;;6371730;27;20043;-69
2022/06/11 11:42:27;;;;;;;10.10;2.22;;;23.00;99.20;;;;;;6356537;27;20078;-69
2022/06/11 11:45:42;;;;;;;6.80;2.30;;;23.20;98.50;;;;;;6356438;27;20047;-69
2022/06/11 11:48:48;;;;;;;11.00;2.25;;;23.20;98.30;;;;;;6374579;27;20127;-69
2022/06/11 11:51:53;;;;;;;11.18;2.65;;;23.20;98.50;;;;;;6374828;27;20125;-69
2022/06/11 11:55:11;;;;;;;8.10;2.00;;;23.10;98.00;;;;;;6374548;27;20051;-69
2022/06/11 11:58:18;;;;;;;8.27;2.28;;;23.20;98.40;;;;;;6374616;27;20043;-69
2022/06/11 12:01:22;;;;;;;9.63;2.33;;;23.30;98.00;;;;;;6374233;27;20051;-69
2022/06/11 12:04:29;;;;;;;7.90;2.65;;;23.30;97.30;;;;;;6374215;27;20380;-69
2022/06/11 12:07:36;;;;;;;7.53;2.13;;;23.30;98.20;;;;;;6355394;27;20072;-69
2022/06/11 12:10:40;;;;;;;13.13;2.25;;;23.40;98.20;;;;;;6374138;27;20049;-69
2022/06/11 12:13:48;;;;;;;8.38;1.92;;;23.40;97.50;;;;;;6373921;27;20057;-69
2022/06/11 12:16:53;;;;;;;6.30;1.98;;;23.40;97.90;;;;;;6373946;27;20399;-69
2022/06/11 12:20:01;;;;;;;6.95;2.03;;;23.30;97.80;;;;;;6373963;27;20050;-69
2022/06/11 12:23:18;;;;;;;8.07;2.10;;;23.30;98.00;;;;;;6373520;27;20070;-69
2022/06/11 12:26:25;;;;;;;10.35;2.58;;;23.20;98.00;;;;;;6355551;27;20078;-69
2022/06/11 12:29:31;;;;;;;6.68;2.00;;;23.30;97.30;;;;;;6355843;27;20126;-69
2022/06/11 12:32:34;;;;;;;9.77;2.22;;;23.30;97.30;;;;;;6373078;27;20499;-69
2022/06/11 12:35:42;;;;;;;;;;;23.20;96.30;;;;;;6355805;27;20043;-69
2022/06/11 12:38:56;;;;;;;8.88;1.80;;;23.20;97.40;;;;;;6373794;27;19926;-69
2022/06/11 12:42:08;;;;;;;6.10;1.77;;;23.30;96.40;;;;;;6373525;27;20051;-69
2022/06/11 12:45:19;;;;;;;8.90;1.77;;;23.30;98.00;;;;;;6373218;27;20047;-69
2022/06/11 12:48:38;;;;;;;5.97;1.83;;;23.20;98.10;;;;;;6373521;27;20046;-69
2022/06/11 12:52:05;;;;;;;12.57;3.03;;;23.30;98.10;;;;;;6346395;28;20048;-69
2022/06/11 12:55:45;;;;;;;8.43;1.95;;;23.40;96.30;;;;;;6347582;28;20488;-69
2022/06/11 12:59:18;;;;;;;7.85;1.75;;;23.50;96.80;;;;;;6334459;28;20040;-69
2022/06/11 13:02:33;;;;;;;5.18;1.65;;;23.50;96.60;;;;;;6331165;28;20549;-69
2022/06/11 13:06:02;;;;;;;9.50;2.00;;;23.70;97.20;;;;;;6347249;28;20050;-69
2022/06/11 13:09:27;;;;;;;7.25;1.95;;;23.70;96.70;;;;;;6328968;28;20070;-69
2022/06/11 13:12:51;;;;;;;7.85;1.88;;;23.80;96.90;;;;;;6347352;28;20138;-69
2022/06/11 13:16:00;;;;;;;7.50;1.88;;;23.80;97.00;;;;;;6347075;28;20054;-69
2022/06/11 13:19:14;;;;;;;9.27;1.70;;;23.80;96.50;;;;;;6330540;27;20051;-69
2022/06/11 13:22:27;;;;;;;9.15;2.47;;;23.80;95.90;;;;;;6372791;27;20053;-69
2022/06/11 13:25:56;;;;;;;13.07;2.45;;;23.80;96.40;;;;;;6353981;27;20043;-69
2022/06/11 13:29:28;;;;;;;7.18;1.90;;;23.80;96.40;;;;;;6372420;27;20130;-69
2022/06/11 13:32:40;;;;;;;8.23;2.15;;;23.70;96.10;;;;;;6372318;27;20047;-69
2022/06/11 13:35:50;;;;;;;8.50;1.98;;;23.70;96.20;;;;;;6354023;27;20504;-70
2022/06/11 13:39:05;;;;;;;6.90;2.03;;;23.80;96.60;;;;;;6372571;27;20047;-69
2022/06/11 13:42:18;;;;;;;8.43;2.28;;;23.90;96.60;;;;;;6372403;27;20172;-69
2022/06/11 13:45:39;;;;;;;6.68;1.95;;;23.70;96.80;;;;;;6353925;28;20050;-69
2022/06/11 13:48:51;;;;;;;6.22;1.73;;;23.50;96.60;;;;;;6372535;28;20172;-70
2022/06/11 13:51:59;;;;;;;17.42;2.75;;;23.50;96.80;;;;;;6347908;28;20081;-70
2022/06/11 13:55:13;;;;;;;6.30;1.85;;;23.30;96.00;;;;;;6328431;28;20048;-70
2022/06/11 13:58:34;;;;;;;7.00;1.88;;;23.30;97.10;;;;;;6328504;28;20457;-68
2022/06/11 14:02:02;;;;;;;9.55;2.20;;;23.40;97.40;;;;;;6328557;28;20410;-68
2022/06/11 14:05:07;;;;;;;11.48;2.58;;;23.30;96.50;;;;;;6316168;28;20062;-69
2022/06/11 14:08:10;;;;;;;9.82;2.45;;;23.30;96.80;;;;;;6328262;28;20052;-68
2022/06/11 14:11:19;;;;;;;7.20;1.93;;;23.40;96.40;;;;;;6347199;28;20047;-69
2022/06/11 14:14:35;;;;;;;10.10;2.00;;;23.30;97.00;;;;;;6328199;28;20124;-69
2022/06/11 14:17:47;;;;;;;10.05;1.70;;;23.20;94.80;;;;;;6346513;28;20039;-69
2022/06/11 14:20:52;;;;;;;9.95;2.83;;;23.30;96.10;;;;;;6331207;28;20054;-69
2022/06/11 14:23:54;;;;;;;8.63;2.15;;;23.40;96.40;;;;;;6346352;28;20044;-69
2022/06/11 14:26:57;;;;;;;6.53;1.90;;;23.60;96.50;;;;;;6346183;28;20047;-69
2022/06/11 14:30:18;;;;;;;5.80;1.73;;;23.70;95.90;;;;;;6328187;28;20051;-69
2022/06/11 14:33:27;;;;;;;5.78;1.60;;;23.80;96.70;;;;;;6323244;28;20052;-70
2022/06/11 14:36:32;;;;;;;9.65;2.17;;;23.80;96.50;;;;;;6325571;28;20059;-69
2022/06/11 14:39:37;;;;;;;8.95;2.30;;;23.80;95.40;;;;;;6326009;28;20169;-69
2022/06/11 14:43:01;;;;;;;6.65;1.67;;;23.80;95.90;;;;;;6325490;28;20055;-69
2022/06/11 14:46:03;;;;;;;11.18;2.67;;;23.70;94.90;;;;;;6324359;28;20399;-69
2022/06/11 14:49:14;;;;;;;13.85;2.78;;;23.80;94.80;;;;;;6327769;28;20044;-69
2022/06/11 14:52:50;;;;;;;9.57;2.22;;;23.80;94.90;;;;;;6325227;28;20052;-70
2022/06/11 14:55:56;;;;;;;10.90;2.28;;;23.80;96.10;;;;;;6325106;28;20148;-69
2022/06/11 14:59:31;;;;;;;8.32;2.15;;;23.80;94.90;;;;;;6323837;28;20048;-69
2022/06/11 15:02:59;;;;;;;9.60;1.90;;;23.70;95.80;;;;;;6303023;28;20238;-69
2022/06/11 15:06:29;;;;;;;6.97;2.00;;;23.60;96.20;;;;;;6323310;28;20181;-69
2022/06/11 15:09:53;;;;;;;8.05;1.90;;;23.60;95.50;;;;;;6323416;28;20044;-69
2022/06/11 15:13:41;;;;;;;10.65;2.92;;;23.60;96.20;;;;;;6324840;28;20054;-69
2022/06/11 15:16:45;;;;;;;7.38;1.70;;;23.80;95.40;;;;;;6317669;28;20052;-69
2022/06/11 15:19:51;;;;;;;6.10;1.60;;;23.70;96.40;;;;;;6324366;28;20044;-70
2022/06/11 15:22:56;;;;;;;6.03;2.33;;;23.60;96.50;;;;;;6324613;28;20129;-69
2022/06/11 15:26:02;;;;;;;6.80;2.00;;;23.70;96.20;;;;;;6323371;28;20054;-70
2022/06/11 15:29:08;;;;;;;8.95;2.45;;;23.70;95.90;;;;;;6324588;28;20048;-70
2022/06/11 15:32:19;;;;;;;10.00;2.30;;;23.60;93.90;;;;;;6329893;28;20411;-69
2022/06/11 15:35:32;;;;;;;5.38;1.80;;;23.60;94.30;;;;;;6349232;28;20495;-70
2022/06/11 15:38:41;;;;;;;10.57;1.92;;;23.60;96.00;;;;;;6349290;28;20108;-69
2022/06/11 15:41:44;;;;;;;6.43;1.70;;;23.60;95.90;;;;;;6330624;28;20047;-70
2022/06/11 15:44:46;;;;;;;7.82;1.98;;;23.60;96.20;;;;;;6330876;28;20049;-70
2022/06/11 15:47:58;;;;;;;8.85;2.05;;;23.70;95.70;;;;;;6356941;27;20509;-70
2022/06/11 15:51:03;;;;;;;6.95;1.60;;;23.70;95.70;;;;;;6356889;27;20044;-70
2022/06/11 15:57:34;;;;;;;7.47;1.77;;;23.60;93.30;;;;;;6355893;27;20087;-70
2022/06/11 16:00:38;;;;;;;11.40;2.47;;;23.60;94.90;;;;;;6374484;27;20055;-70
2022/06/11 16:03:44;;;;;;;8.13;1.88;;;23.60;94.30;;;;;;6374146;27;20506;-70
2022/06/11 16:06:57;;;;;;;10.43;2.45;;;23.60;94.80;;;;;;6355685;27;20047;-70
2022/06/11 16:10:01;;;;;;;7.25;2.15;;;23.50;93.30;;;;;;6374219;27;20047;-70
2022/06/11 16:13:04;;;;;;;7.32;1.60;;;23.50;95.10;;;;;;6374257;27;20128;-70
2022/06/11 16:16:17;;;;;;;7.97;1.85;;;23.40;95.60;;;;;;6355485;27;20039;-70
2022/06/11 16:19:22;;;;;;;9.77;2.35;;;23.40;95.30;;;;;;6374268;27;20044;-70
2022/06/11 16:22:26;;;;;;;7.05;2.03;;;23.30;95.20;;;;;;6355683;27;20054;-70
2022/06/11 16:25:33;;;;;;;7.60;1.77;;;23.40;95.20;;;;;;6374167;27;20403;-70